Time;durP1;ratioP1;P1;durP2;ratioP2;P2;SDS_P1;SDS_P2;PMS_P1;PMS_P2;Temp;Humidity;BMP_temperature;BMP_pressure;BME280_temperature;BME280_humidity;BME280_pressure;Samples;Min_cycle;Max_cycle;Signal;HPM_P1;HPM_P2
2022/12/12 00:00:59;;;;;;;30.10;17.83;;;;;;;;;;5073649;28;20229;-83
2022/12/12 00:03:26;;;;;;;33.20;19.50;;;;;;;;;;5074172;28;20217;-83
2022/12/12 00:05:54;;;;;;;31.40;19.13;;;;;;;;;;5073660;28;20784;-83
2022/12/12 00:08:22;;;;;;;31.67;19.10;;;;;;;;;;5074434;28;20203;-83
2022/12/12 00:10:49;;;;;;;34.57;19.33;;;;;;;;;;5073689;28;20238;-83
2022/12/12 00:13:16;;;;;;;34.17;18.37;;;;;;;;;;5074138;28;20236;-83
2022/12/12 00:15:43;;;;;;;32.07;18.03;;;;;;;;;;5073885;28;20233;-83
2022/12/12 00:18:10;;;;;;;35.67;19.10;;;;;;;;;;5074284;28;20211;-83
2022/12/12 00:20:38;;;;;;;30.90;19.07;;;;;;;;;;5073416;28;20705;-84
2022/12/12 00:23:05;;;;;;;30.43;17.57;;;;;;;;;;5073949;28;20675;-83
2022/12/12 00:25:34;;;;;;;29.60;17.93;;;;;;;;;;5073450;28;20236;-83
2022/12/12 00:28:01;;;;;;;33.33;18.40;;;;;;;;;;5073772;28;20212;-83
2022/12/12 00:30:29;;;;;;;30.23;18.13;;;;;;;;;;5073119;28;20313;-83
2022/12/12 00:32:56;;;;;;;33.93;17.40;;;;;;;;;;5074090;28;20225;-83
2022/12/12 00:35:23;;;;;;;30.43;16.90;;;;;;;;;;5073012;28;20248;-83
2022/12/12 00:37:50;;;;;;;33.43;19.77;;;;;;;;;;5073884;28;20210;-83
2022/12/12 00:40:17;;;;;;;40.30;21.87;;;;;;;;;;5073385;28;20217;-83
2022/12/12 00:42:46;;;;;;;39.23;21.67;;;;;;;;;;5073631;28;20210;-83
2022/12/12 00:45:13;;;;;;;37.67;21.23;;;;;;;;;;5072995;28;20246;-84
2022/12/12 00:47:40;;;;;;;38.03;20.97;;;;;;;;;;5073335;28;20198;-83
2022/12/12 00:50:07;;;;;;;44.43;20.90;;;;;;;;;;5073357;28;20207;-84
2022/12/12 00:52:34;;;;;;;34.97;19.47;;;;;;;;;;5073686;28;20206;-83
2022/12/12 00:55:02;;;;;;;33.90;20.33;;;;;;;;;;5073322;28;20693;-83
2022/12/12 00:57:29;;;;;;;34.53;19.70;;;;;;;;;;5073327;28;20229;-83
2022/12/12 00:59:58;;;;;;;37.37;19.87;;;;;;;;;;5080356;28;20205;-83
2022/12/12 01:02:25;;;;;;;30.17;18.47;;;;;;;;;;5071716;28;20321;-83
2022/12/12 01:04:52;;;;;;;39.00;20.30;;;;;;;;;;5073078;28;20241;-83
2022/12/12 01:07:19;;;;;;;37.20;19.90;;;;;;;;;;5072458;28;20739;-83
2022/12/12 01:09:46;;;;;;;33.93;19.53;;;;;;;;;;5072967;28;20693;-83
2022/12/12 01:12:13;;;;;;;38.83;20.33;;;;;;;;;;5072420;28;20245;-83
2022/12/12 01:14:40;;;;;;;37.47;20.47;;;;;;;;;;5072841;28;20194;-83
2022/12/12 01:17:09;;;;;;;34.63;19.73;;;;;;;;;;5072362;28;20238;-84
2022/12/12 01:19:36;;;;;;;32.33;19.13;;;;;;;;;;5072991;28;20218;-84
2022/12/12 01:22:03;;;;;;;31.93;19.33;;;;;;;;;;5072171;28;20247;-83
2022/12/12 01:24:30;;;;;;;32.60;18.47;;;;;;;;;;5072932;28;20207;-83
2022/12/12 01:26:57;;;;;;;32.37;18.77;;;;;;;;;;5071989;28;20241;-84
2022/12/12 01:29:24;;;;;;;30.53;17.97;;;;;;;;;;5073131;28;20205;-83
2022/12/12 01:31:51;;;;;;;33.90;19.53;;;;;;;;;;5072012;28;20241;-83
2022/12/12 01:34:20;;;;;;;34.73;19.43;;;;;;;;;;5072562;28;20202;-83
2022/12/12 01:36:47;;;;;;;37.77;19.37;;;;;;;;;;5071656;28;20264;-84
2022/12/12 01:39:14;;;;;;;32.67;18.70;;;;;;;;;;5072093;28;20681;-84
2022/12/12 01:41:42;;;;;;;32.57;19.10;;;;;;;;;;5072013;28;20229;-83
2022/12/12 01:44:32;;;;;;;34.70;19.03;;;;;;;;;;5072166;28;20706;-83
2022/12/12 01:46:59;;;;;;;36.10;19.47;;;;;;;;;;5071466;28;20240;-83
2022/12/12 01:49:27;;;;;;;35.53;19.57;;;;;;;;;;5072108;28;20223;-84
2022/12/12 01:51:57;;;;;;;35.33;18.57;;;;;;;;;;5071686;28;20229;-83
2022/12/12 01:54:26;;;;;;;33.33;19.00;;;;;;;;;;5072063;28;20274;-83
2022/12/12 01:56:54;;;;;;;31.77;18.93;;;;;;;;;;5071540;28;20239;-83
2022/12/12 01:59:22;;;;;;;34.37;19.63;;;;;;;;;;5072275;28;20328;-83
2022/12/12 02:01:49;;;;;;;33.73;18.27;;;;;;;;;;5087342;28;20232;-83
2022/12/12 02:04:17;;;;;;;36.33;19.27;;;;;;;;;;5092113;28;20214;-83
2022/12/12 02:06:46;;;;;;;31.87;19.10;;;;;;;;;;5081197;28;20614;-83
2022/12/12 02:09:14;;;;;;;33.90;18.20;;;;;;;;;;5070469;28;20216;-84
2022/12/12 02:11:43;;;;;;;32.67;18.53;;;;;;;;;;5071361;28;20742;-84
2022/12/12 02:14:10;;;;;;;31.17;17.37;;;;;;;;;;5071373;28;20213;-84
2022/12/12 02:16:48;;;;;;;29.17;16.37;;;;;;;;;;5071231;28;20234;-83
2022/12/12 02:19:32;;;;;;;31.50;16.70;;;;;;;;;;5071883;28;20186;-83
2022/12/12 02:22:03;;;;;;;33.73;18.30;;;;;;;;;;5071398;28;20241;-83
2022/12/12 02:24:45;;;;;;;35.83;17.20;;;;;;;;;;5071997;28;20556;-84
2022/12/12 02:27:43;;;;;;;30.30;16.43;;;;;;;;;;5068817;28;20241;-83
2022/12/12 02:30:14;;;;;;;40.30;20.37;;;;;;;;;;4990671;28;20204;-84
2022/12/12 02:32:50;;;;;;;35.93;19.73;;;;;;;;;;5074858;28;20206;-84
2022/12/12 02:37:58;;;;;;;28.77;17.17;;;;;;;;;;5041375;28;20215;-80
2022/12/12 02:40:26;;;;;;;32.83;16.90;;;;;;;;;;5031863;28;20230;-81
2022/12/12 02:42:58;;;;;;;57.17;25.23;;;;;;;;;;5041583;28;20670;-80
2022/12/12 02:45:28;;;;;;;41.67;20.40;;;;;;;;;;5050242;28;20231;-81
2022/12/12 02:48:00;;;;;;;27.20;17.43;;;;;;;;;;5052831;28;20205;-80
2022/12/12 02:50:29;;;;;;;30.57;17.77;;;;;;;;;;5053164;28;20595;-81
2022/12/12 02:52:56;;;;;;;43.70;25.60;;;;;;;;;;5053408;28;20606;-79
2022/12/12 02:55:23;;;;;;;34.73;20.13;;;;;;;;;;5053137;28;20235;-80
2022/12/12 02:57:51;;;;;;;38.67;21.00;;;;;;;;;;5052199;28;20214;-81
2022/12/12 03:00:20;;;;;;;34.77;20.27;;;;;;;;;;5051440;28;20213;-81
2022/12/12 03:08:53;;;;;;;36.83;18.93;;;;;;;;;;5051146;28;20201;-80
2022/12/12 03:11:25;;;;;;;29.73;16.40;;;;;;;;;;5050670;28;20254;-80
2022/12/12 03:13:55;;;;;;;35.10;19.70;;;;;;;;;;5051303;28;20210;-81
2022/12/12 03:16:26;;;;;;;31.97;18.40;;;;;;;;;;5050685;28;20241;-81
2022/12/12 03:18:57;;;;;;;32.20;18.57;;;;;;;;;;5051096;28;20211;-81
2022/12/12 03:21:26;;;;;;;30.57;17.17;;;;;;;;;;5050339;28;20227;-80
2022/12/12 03:23:55;;;;;;;35.87;19.00;;;;;;;;;;5050827;28;20670;-81
2022/12/12 03:26:25;;;;;;;30.80;17.80;;;;;;;;;;5053565;28;20233;-81
2022/12/12 03:28:55;;;;;;;28.53;17.10;;;;;;;;;;5054485;28;20211;-81
2022/12/12 03:31:25;;;;;;;31.30;18.53;;;;;;;;;;5053733;28;20234;-81
2022/12/12 03:33:54;;;;;;;30.70;17.67;;;;;;;;;;5055217;28;20210;-80
2022/12/12 03:36:25;;;;;;;34.43;17.20;;;;;;;;;;5053560;28;20242;-81
2022/12/12 03:38:56;;;;;;;33.60;17.80;;;;;;;;;;5054429;28;20641;-81
2022/12/12 03:41:26;;;;;;;33.50;17.60;;;;;;;;;;5053844;28;20235;-81
2022/12/12 03:43:55;;;;;;;34.17;16.40;;;;;;;;;;5054642;28;20214;-79
2022/12/12 03:46:24;;;;;;;30.93;17.70;;;;;;;;;;5053886;28;20260;-79
2022/12/12 03:48:54;;;;;;;32.93;17.30;;;;;;;;;;5054137;28;20211;-79
2022/12/12 03:51:26;;;;;;;32.17;17.70;;;;;;;;;;5053728;28;20231;-79
2022/12/12 03:53:57;;;;;;;30.93;16.83;;;;;;;;;;5054903;28;20215;-79
2022/12/12 03:56:27;;;;;;;30.67;18.13;;;;;;;;;;5053957;28;20235;-79
2022/12/12 03:58:56;;;;;;;31.93;18.20;;;;;;;;;;5054112;28;20206;-79
2022/12/12 04:01:25;;;;;;;30.37;17.27;;;;;;;;;;5058761;28;20235;-79
2022/12/12 04:03:56;;;;;;;35.50;17.67;;;;;;;;;;5054808;28;20210;-80
2022/12/12 04:06:30;;;;;;;33.63;18.60;;;;;;;;;;5053840;28;20295;-81
2022/12/12 04:14:41;;;;;;;27.50;17.33;;;;;;;;;;5034196;28;20192;-80
2022/12/12 04:17:12;;;;;;;34.97;17.17;;;;;;;;;;5047316;28;20245;-81
2022/12/12 04:25:20;;;;;;;25.37;16.30;;;;;;;;;;5053627;28;20193;-81
2022/12/12 04:27:49;;;;;;;32.97;16.77;;;;;;;;;;5054075;28;20216;-80
2022/12/12 04:30:16;;;;;;;30.70;16.77;;;;;;;;;;5053503;28;20206;-81
2022/12/12 04:32:45;;;;;;;33.00;17.70;;;;;;;;;;5053924;28;20210;-80
2022/12/12 04:35:14;;;;;;;32.53;17.13;;;;;;;;;;5053445;28;20682;-80
2022/12/12 04:37:47;;;;;;;31.83;17.60;;;;;;;;;;5053327;28;20207;-80
2022/12/12 04:40:17;;;;;;;31.43;18.23;;;;;;;;;;5053479;28;20196;-81
2022/12/12 04:42:46;;;;;;;31.53;17.80;;;;;;;;;;5053618;28;20230;-80
2022/12/12 04:45:15;;;;;;;31.13;17.40;;;;;;;;;;5053040;28;20223;-80
2022/12/12 04:47:44;;;;;;;36.30;19.07;;;;;;;;;;5053898;28;20233;-80
2022/12/12 04:50:12;;;;;;;28.30;16.20;;;;;;;;;;5053300;28;20693;-81
2022/12/12 04:52:40;;;;;;;39.47;18.43;;;;;;;;;;5053625;28;20206;-80
2022/12/12 04:55:10;;;;;;;31.20;17.17;;;;;;;;;;5052889;28;20222;-80
2022/12/12 04:57:39;;;;;;;33.30;17.87;;;;;;;;;;5033431;28;20718;-81
2022/12/12 05:00:07;;;;;;;31.73;17.87;;;;;;;;;;5032981;28;20203;-77
2022/12/12 05:02:37;;;;;;;33.30;17.07;;;;;;;;;;5033538;28;20203;-78
2022/12/12 05:05:07;;;;;;;31.50;17.37;;;;;;;;;;5032573;28;20675;-79
2022/12/12 05:07:36;;;;;;;36.10;18.43;;;;;;;;;;5033128;28;20236;-79
2022/12/12 05:10:05;;;;;;;31.23;17.37;;;;;;;;;;5032540;28;20208;-80
2022/12/12 05:12:39;;;;;;;33.20;17.77;;;;;;;;;;5033183;28;20260;-79
2022/12/12 05:15:07;;;;;;;33.03;17.90;;;;;;;;;;5032626;28;20643;-79
2022/12/12 05:17:38;;;;;;;34.37;19.13;;;;;;;;;;5053105;28;20228;-78
2022/12/12 05:20:06;;;;;;;33.37;18.87;;;;;;;;;;5052041;28;20693;-78
2022/12/12 05:22:33;;;;;;;28.50;17.13;;;;;;;;;;5052899;28;20209;-78
2022/12/12 05:25:00;;;;;;;32.43;18.50;;;;;;;;;;5052655;28;20213;-78
2022/12/12 05:27:27;;;;;;;30.10;17.07;;;;;;;;;;5051723;28;20237;-78
2022/12/12 05:29:55;;;;;;;37.90;17.73;;;;;;;;;;5052550;28;20208;-78
2022/12/12 05:32:22;;;;;;;39.10;19.03;;;;;;;;;;5051882;28;20234;-78
2022/12/12 05:34:50;;;;;;;34.97;18.30;;;;;;;;;;5052650;28;20214;-78
2022/12/12 05:37:17;;;;;;;28.60;17.50;;;;;;;;;;5051703;28;20227;-78
2022/12/12 05:39:44;;;;;;;36.53;20.00;;;;;;;;;;5052100;28;20209;-78
2022/12/12 05:42:11;;;;;;;37.83;18.33;;;;;;;;;;5051694;28;20240;-77
2022/12/12 05:44:38;;;;;;;26.90;17.03;;;;;;;;;;5052395;28;20210;-78
2022/12/12 05:47:07;;;;;;;31.03;19.07;;;;;;;;;;5051387;28;20241;-78
2022/12/12 05:49:34;;;;;;;31.37;18.60;;;;;;;;;;5052021;28;20203;-78
2022/12/12 05:52:01;;;;;;;35.00;19.40;;;;;;;;;;5051874;28;20234;-78
2022/12/12 05:54:28;;;;;;;39.37;21.37;;;;;;;;;;5052299;28;20214;-78
2022/12/12 05:56:55;;;;;;;43.00;21.50;;;;;;;;;;5051719;28;20238;-78
2022/12/12 05:59:22;;;;;;;58.13;27.50;;;;;;;;;;5051851;28;20244;-78
2022/12/12 06:01:49;;;;;;;39.20;22.37;;;;;;;;;;5051583;28;20238;-78
2022/12/12 06:04:17;;;;;;;38.37;20.60;;;;;;;;;;5052185;28;20217;-78
2022/12/12 06:06:45;;;;;;;41.30;20.53;;;;;;;;;;5051212;28;20225;-78
2022/12/12 06:09:12;;;;;;;38.53;20.87;;;;;;;;;;5052050;28;20206;-78
2022/12/12 06:11:39;;;;;;;38.07;20.83;;;;;;;;;;5051293;28;20238;-77
2022/12/12 06:14:06;;;;;;;33.97;19.37;;;;;;;;;;5052043;28;20202;-76
2022/12/12 06:16:35;;;;;;;34.60;19.00;;;;;;;;;;5050974;28;20231;-76
2022/12/12 06:19:02;;;;;;;36.70;19.77;;;;;;;;;;5051454;28;20825;-76
2022/12/12 06:21:30;;;;;;;29.57;17.23;;;;;;;;;;5050882;28;20701;-76
2022/12/12 06:23:57;;;;;;;30.77;16.90;;;;;;;;;;5051847;28;20218;-77
2022/12/12 06:26:25;;;;;;;34.23;17.93;;;;;;;;;;5050877;28;20687;-77
2022/12/12 06:28:52;;;;;;;32.03;17.40;;;;;;;;;;5051577;28;20210;-77
2022/12/12 06:31:19;;;;;;;34.30;17.80;;;;;;;;;;5051240;28;20226;-77
2022/12/12 06:33:46;;;;;;;32.33;17.83;;;;;;;;;;5051420;28;20206;-77
2022/12/12 06:36:15;;;;;;;32.27;17.60;;;;;;;;;;5050939;28;20239;-77
2022/12/12 06:38:43;;;;;;;38.40;17.40;;;;;;;;;;5050853;28;20272;-77
2022/12/12 06:41:13;;;;;;;32.57;17.60;;;;;;;;;;5051005;28;20243;-78
2022/12/12 06:43:41;;;;;;;30.93;16.50;;;;;;;;;;5051341;28;20226;-77
2022/12/12 06:46:11;;;;;;;36.53;18.80;;;;;;;;;;5051001;28;20248;-77
2022/12/12 06:48:38;;;;;;;37.80;18.90;;;;;;;;;;5051159;28;20205;-79
2022/12/12 06:51:06;;;;;;;35.03;18.77;;;;;;;;;;5035489;28;20243;-78
2022/12/12 06:53:33;;;;;;;34.33;18.80;;;;;;;;;;5039385;28;20210;-79
2022/12/12 06:56:05;;;;;;;34.93;18.13;;;;;;;;;;5050825;28;20241;-79
2022/12/12 06:58:32;;;;;;;33.07;19.20;;;;;;;;;;5051315;28;20201;-78
2022/12/12 07:00:59;;;;;;;33.93;17.80;;;;;;;;;;5053200;28;20234;-79
2022/12/12 07:03:26;;;;;;;29.87;16.67;;;;;;;;;;5055165;28;20209;-80
2022/12/12 07:05:53;;;;;;;33.40;18.10;;;;;;;;;;5054924;28;20506;-78
2022/12/12 07:08:20;;;;;;;34.60;18.47;;;;;;;;;;5054722;28;20232;-78
2022/12/12 07:10:47;;;;;;;30.50;18.40;;;;;;;;;;5055009;28;20236;-78
2022/12/12 07:13:16;;;;;;;30.33;17.37;;;;;;;;;;5054661;28;20308;-78
2022/12/12 07:15:43;;;;;;;30.03;17.37;;;;;;;;;;5054560;28;20239;-78
2022/12/12 07:18:10;;;;;;;31.03;17.70;;;;;;;;;;5054763;28;20215;-78
2022/12/12 07:20:39;;;;;;;31.40;17.80;;;;;;;;;;5039805;28;20230;-78
2022/12/12 07:23:06;;;;;;;32.83;17.23;;;;;;;;;;5034962;28;20218;-77
2022/12/12 07:25:33;;;;;;;31.50;18.37;;;;;;;;;;5051204;28;20235;-78
2022/12/12 07:28:00;;;;;;;27.83;16.53;;;;;;;;;;5054590;28;20231;-77
2022/12/12 07:30:29;;;;;;;33.17;19.30;;;;;;;;;;5054359;28;20321;-77
2022/12/12 07:32:56;;;;;;;36.57;19.27;;;;;;;;;;5055031;28;20211;-77
2022/12/12 07:35:24;;;;;;;37.10;19.87;;;;;;;;;;5054209;28;20297;-77
2022/12/12 07:37:51;;;;;;;34.00;18.23;;;;;;;;;;5053939;28;20676;-77
2022/12/12 07:40:19;;;;;;;29.83;17.97;;;;;;;;;;5052946;28;20206;-77
2022/12/12 07:42:47;;;;;;;35.03;17.77;;;;;;;;;;5054062;28;20334;-77
2022/12/12 07:45:14;;;;;;;29.27;16.43;;;;;;;;;;5051765;28;20215;-77
2022/12/12 07:47:42;;;;;;;33.27;18.40;;;;;;;;;;5033709;28;20233;-78
2022/12/12 07:50:09;;;;;;;34.07;17.53;;;;;;;;;;5034214;28;20213;-77
2022/12/12 07:52:36;;;;;;;29.10;16.87;;;;;;;;;;5034684;28;20211;-77
2022/12/12 07:55:04;;;;;;;34.17;17.77;;;;;;;;;;5034089;28;20211;-77
2022/12/12 07:57:31;;;;;;;33.57;17.77;;;;;;;;;;5034562;28;20220;-77
2022/12/12 07:59:58;;;;;;;32.70;17.47;;;;;;;;;;5034247;28;20218;-79
2022/12/12 08:02:25;;;;;;;34.90;19.20;;;;;;;;;;5037821;28;20238;-78
2022/12/12 08:04:54;;;;;;;31.73;17.47;;;;;;;;;;5053672;28;20208;-78
2022/12/12 08:07:21;;;;;;;36.27;19.10;;;;;;;;;;5052186;28;20730;-78
2022/12/12 08:09:48;;;;;;;33.07;18.73;;;;;;;;;;5033773;28;20212;-78
2022/12/12 08:12:15;;;;;;;31.93;19.50;;;;;;;;;;5032958;28;20237;-79
2022/12/12 08:14:42;;;;;;;42.70;23.17;;;;;;;;;;5033846;28;20216;-79
2022/12/12 08:17:09;;;;;;;34.40;19.80;;;;;;;;;;5033377;28;20243;-79
2022/12/12 08:19:36;;;;;;;43.23;23.50;;;;;;;;;;5033795;28;20209;-81
2022/12/12 08:22:05;;;;;;;40.27;22.70;;;;;;;;;;5033276;28;20354;-78
2022/12/12 08:24:32;;;;;;;40.87;22.77;;;;;;;;;;5033795;28;20206;-79
2022/12/12 08:26:59;;;;;;;35.17;19.43;;;;;;;;;;5033061;28;20241;-79
2022/12/12 08:29:26;;;;;;;35.10;17.63;;;;;;;;;;5034113;28;20215;-78
2022/12/12 08:31:53;;;;;;;34.50;20.00;;;;;;;;;;5033180;28;20260;-78
2022/12/12 08:34:21;;;;;;;46.13;24.77;;;;;;;;;;5033687;28;20229;-78
2022/12/12 08:36:48;;;;;;;34.07;17.87;;;;;;;;;;5033377;28;20236;-82
2022/12/12 08:39:16;;;;;;;33.80;18.73;;;;;;;;;;5041084;28;20211;-83
2022/12/12 08:41:46;;;;;;;34.90;19.80;;;;;;;;;;5044191;28;20255;-82
2022/12/12 08:44:13;;;;;;;30.33;17.73;;;;;;;;;;5051101;28;20266;-82
2022/12/12 08:46:41;;;;;;;31.83;17.20;;;;;;;;;;5032685;28;20740;-82
2022/12/12 08:49:08;;;;;;;37.83;19.07;;;;;;;;;;5033390;28;20208;-82
2022/12/12 08:51:35;;;;;;;34.03;19.37;;;;;;;;;;5040146;28;20242;-82
2022/12/12 08:54:03;;;;;;;37.57;20.73;;;;;;;;;;5047208;28;20211;-82
2022/12/12 08:56:31;;;;;;;31.87;18.40;;;;;;;;;;5052568;28;20241;-82
2022/12/12 08:58:58;;;;;;;34.00;18.37;;;;;;;;;;5052966;28;20208;-83
2022/12/12 09:01:27;;;;;;;33.87;18.57;;;;;;;;;;5052455;28;20243;-82
2022/12/12 09:03:55;;;;;;;33.93;18.90;;;;;;;;;;5052933;28;20189;-82
2022/12/12 09:06:22;;;;;;;35.97;19.37;;;;;;;;;;5052527;28;20244;-83
2022/12/12 09:08:49;;;;;;;32.43;18.63;;;;;;;;;;5044284;28;20308;-82
2022/12/12 09:11:17;;;;;;;34.30;18.23;;;;;;;;;;5036680;28;20726;-82
2022/12/12 09:13:46;;;;;;;30.47;18.87;;;;;;;;;;5043989;28;20213;-82
2022/12/12 09:16:13;;;;;;;29.63;17.67;;;;;;;;;;5032000;28;20240;-82
2022/12/12 09:18:40;;;;;;;28.13;16.97;;;;;;;;;;5032473;28;20205;-82
2022/12/12 09:21:09;;;;;;;32.20;17.30;;;;;;;;;;5032177;28;20249;-83
2022/12/12 09:23:36;;;;;;;26.97;16.10;;;;;;;;;;5043153;28;20209;-82
2022/12/12 09:26:07;;;;;;;27.97;16.97;;;;;;;;;;5051807;28;20267;-81
2022/12/12 09:28:34;;;;;;;30.93;16.43;;;;;;;;;;5051698;28;20228;-83
2022/12/12 09:31:04;;;;;;;30.17;17.77;;;;;;;;;;5052346;28;20241;-82
2022/12/12 09:33:31;;;;;;;32.10;17.17;;;;;;;;;;5050706;28;20217;-83
2022/12/12 09:35:59;;;;;;;32.30;18.77;;;;;;;;;;5051670;28;20240;-83
2022/12/12 09:38:26;;;;;;;30.77;17.03;;;;;;;;;;5052366;28;20237;-82
2022/12/12 09:40:54;;;;;;;29.97;18.37;;;;;;;;;;5051606;28;20240;-82
2022/12/12 09:43:24;;;;;;;33.67;19.43;;;;;;;;;;5052361;28;20209;-82
2022/12/12 09:45:52;;;;;;;29.93;16.93;;;;;;;;;;5051709;28;20251;-82
2022/12/12 09:48:24;;;;;;;28.87;17.83;;;;;;;;;;5051529;28;20587;-83
2022/12/12 09:50:52;;;;;;;31.03;17.63;;;;;;;;;;5050491;28;20236;-83
2022/12/12 09:53:20;;;;;;;29.40;17.70;;;;;;;;;;5050463;28;20207;-83
2022/12/12 09:55:50;;;;;;;27.17;17.43;;;;;;;;;;5051483;28;20301;-82
2022/12/12 09:58:21;;;;;;;27.13;16.90;;;;;;;;;;5051589;28;20212;-83
2022/12/12 10:00:49;;;;;;;28.93;16.60;;;;;;;;;;5044943;28;20610;-83
2022/12/12 10:03:23;;;;;;;31.90;18.77;;;;;;;;;;5031715;28;20205;-83
2022/12/12 10:05:55;;;;;;;24.87;16.00;;;;;;;;;;5031356;28;20238;-83
2022/12/12 10:08:24;;;;;;;31.20;16.87;;;;;;;;;;5031488;28;20935;-82
2022/12/12 10:10:53;;;;;;;32.07;18.30;;;;;;;;;;5031486;28;20248;-83
2022/12/12 10:13:22;;;;;;;26.83;16.40;;;;;;;;;;5032277;28;20233;-85
2022/12/12 10:15:51;;;;;;;33.47;17.30;;;;;;;;;;5031813;28;20248;-85
2022/12/12 10:18:21;;;;;;;29.63;17.10;;;;;;;;;;5032278;28;20197;-86
2022/12/12 10:20:52;;;;;;;29.77;17.47;;;;;;;;;;5031786;28;20229;-85
2022/12/12 10:23:23;;;;;;;28.07;16.60;;;;;;;;;;5016070;28;20692;-84
2022/12/12 10:25:53;;;;;;;29.40;17.00;;;;;;;;;;5031803;28;20792;-87
2022/12/12 10:28:20;;;;;;;32.00;18.10;;;;;;;;;;5032470;28;20236;-85
2022/12/12 10:30:56;;;;;;;28.30;17.43;;;;;;;;;;5033433;28;20242;-84
2022/12/12 10:33:29;;;;;;;26.90;16.30;;;;;;;;;;5032584;28;20217;-86
2022/12/12 10:36:02;;;;;;;32.20;17.67;;;;;;;;;;5032522;28;20240;-85
2022/12/12 10:38:35;;;;;;;31.00;16.67;;;;;;;;;;5032344;28;20658;-85
2022/12/12 10:41:09;;;;;;;27.83;16.80;;;;;;;;;;5031384;28;20233;-83
2022/12/12 10:43:41;;;;;;;31.33;17.60;;;;;;;;;;5031750;28;20237;-84
2022/12/12 10:46:13;;;;;;;39.63;18.33;;;;;;;;;;5030678;28;20245;-83
2022/12/12 10:48:40;;;;;;;37.17;17.43;;;;;;;;;;5031512;28;20773;-83
2022/12/12 10:51:10;;;;;;;28.80;16.27;;;;;;;;;;5030740;28;20241;-83
2022/12/12 10:53:38;;;;;;;30.60;18.10;;;;;;;;;;5031035;28;20688;-83
2022/12/12 10:56:07;;;;;;;27.80;16.60;;;;;;;;;;5030524;28;20670;-82
2022/12/12 10:58:37;;;;;;;34.17;17.43;;;;;;;;;;5030597;28;20227;-83
2022/12/12 11:01:05;;;;;;;34.13;19.43;;;;;;;;;;5030589;28;20234;-82
2022/12/12 11:03:33;;;;;;;32.07;17.83;;;;;;;;;;5025034;28;20203;-82
2022/12/12 11:06:03;;;;;;;30.43;18.57;;;;;;;;;;5019125;28;20246;-83
2022/12/12 11:08:35;;;;;;;29.37;16.90;;;;;;;;;;5039978;28;20696;-84
2022/12/12 11:11:04;;;;;;;37.33;18.57;;;;;;;;;;5050434;28;20235;-82
2022/12/12 11:13:31;;;;;;;31.63;17.93;;;;;;;;;;5051061;28;20232;-84
2022/12/12 11:16:00;;;;;;;33.07;17.63;;;;;;;;;;5049250;28;20244;-83
2022/12/12 11:18:28;;;;;;;27.97;17.10;;;;;;;;;;5035665;28;20290;-84
2022/12/12 11:21:02;;;;;;;26.73;16.10;;;;;;;;;;5030234;28;20237;-83
2022/12/12 11:23:30;;;;;;;32.43;17.10;;;;;;;;;;5030851;28;20209;-83
2022/12/12 11:25:59;;;;;;;28.17;16.23;;;;;;;;;;5031339;28;20253;-83
2022/12/12 11:28:27;;;;;;;29.73;16.10;;;;;;;;;;5050767;28;20233;-83
2022/12/12 11:30:55;;;;;;;25.87;16.93;;;;;;;;;;5050653;28;20249;-83
2022/12/12 11:33:26;;;;;;;27.73;16.30;;;;;;;;;;5049866;28;20216;-83
2022/12/12 11:35:54;;;;;;;25.87;14.63;;;;;;;;;;5050442;28;20245;-83
2022/12/12 11:38:25;;;;;;;26.77;14.53;;;;;;;;;;5050440;28;20210;-83
2022/12/12 11:40:57;;;;;;;26.67;15.00;;;;;;;;;;5050167;28;20238;-83
2022/12/12 11:43:27;;;;;;;24.70;14.30;;;;;;;;;;5051243;28;20187;-83
2022/12/12 11:46:01;;;;;;;25.03;14.50;;;;;;;;;;5051075;28;20237;-83
2022/12/12 11:48:37;;;;;;;27.07;14.80;;;;;;;;;;5054358;28;20228;-83
2022/12/12 11:51:04;;;;;;;28.20;14.73;;;;;;;;;;5052729;28;20727;-82
2022/12/12 11:53:32;;;;;;;25.37;14.17;;;;;;;;;;5054540;28;20214;-82
2022/12/12 11:56:07;;;;;;;25.00;15.50;;;;;;;;;;5053655;28;20249;-83
2022/12/12 11:58:37;;;;;;;22.17;13.57;;;;;;;;;;5054417;28;20191;-83
2022/12/12 12:01:07;;;;;;;22.57;14.10;;;;;;;;;;5053984;28;20600;-83
2022/12/12 12:03:46;;;;;;;20.77;13.40;;;;;;;;;;5054884;28;20220;-83
2022/12/12 12:06:22;;;;;;;22.97;12.57;;;;;;;;;;5053762;28;20241;-83
2022/12/12 12:08:56;;;;;;;20.73;13.03;;;;;;;;;;5053934;28;20210;-84
2022/12/12 12:11:29;;;;;;;20.73;12.80;;;;;;;;;;5053585;28;20240;-83
2022/12/12 12:14:13;;;;;;;22.73;13.33;;;;;;;;;;5053718;28;20197;-83
2022/12/12 12:16:46;;;;;;;22.30;12.77;;;;;;;;;;5051910;28;20237;-85
2022/12/12 12:19:16;;;;;;;21.63;13.57;;;;;;;;;;5053441;28;20292;-82
2022/12/12 12:21:49;;;;;;;20.93;13.67;;;;;;;;;;5052809;28;20237;-83
2022/12/12 12:24:22;;;;;;;21.13;12.93;;;;;;;;;;5034379;28;20444;-82
2022/12/12 12:26:53;;;;;;;24.30;13.77;;;;;;;;;;5051805;28;20253;-83
2022/12/12 12:29:37;;;;;;;18.17;12.50;;;;;;;;;;5051757;28;20246;-83
2022/12/12 12:32:10;;;;;;;24.57;13.57;;;;;;;;;;5054612;28;20239;-83
2022/12/12 12:34:44;;;;;;;21.27;13.00;;;;;;;;;;5053738;28;20218;-83
2022/12/12 12:37:18;;;;;;;19.17;11.47;;;;;;;;;;5052575;28;20237;-83
2022/12/12 12:39:52;;;;;;;22.47;12.27;;;;;;;;;;5052679;28;20193;-83
2022/12/12 12:42:25;;;;;;;21.10;12.40;;;;;;;;;;5033079;28;20235;-83
2022/12/12 12:44:57;;;;;;;20.80;12.43;;;;;;;;;;5033560;28;20408;-83
2022/12/12 12:47:28;;;;;;;21.37;13.30;;;;;;;;;;5032644;28;20271;-83
2022/12/12 12:49:57;;;;;;;22.77;13.07;;;;;;;;;;5033051;28;20229;-83
2022/12/12 12:52:26;;;;;;;27.77;14.50;;;;;;;;;;5044832;28;20226;-83
2022/12/12 12:54:55;;;;;;;28.00;15.27;;;;;;;;;;5053068;28;20209;-83
2022/12/12 12:57:26;;;;;;;27.97;15.63;;;;;;;;;;5051757;28;20252;-83
2022/12/12 12:59:57;;;;;;;26.37;15.47;;;;;;;;;;5052029;28;20256;-86
2022/12/12 13:02:27;;;;;;;27.13;16.63;;;;;;;;;;5052478;28;20234;-83
2022/12/12 13:04:57;;;;;;;29.63;15.60;;;;;;;;;;5047948;28;20221;-82
2022/12/12 13:07:27;;;;;;;31.10;17.53;;;;;;;;;;5046243;28;20225;-83
2022/12/12 13:09:58;;;;;;;33.27;16.47;;;;;;;;;;5052587;28;20315;-82
2022/12/12 13:12:28;;;;;;;29.63;16.03;;;;;;;;;;5032621;28;20234;-81
2022/12/12 13:15:00;;;;;;;26.80;15.00;;;;;;;;;;5039115;28;20214;-82
2022/12/12 13:17:41;;;;;;;22.40;14.10;;;;;;;;;;5051709;28;20716;-82
2022/12/12 13:20:14;;;;;;;25.10;15.30;;;;;;;;;;5052100;28;20199;-82
2022/12/12 13:22:46;;;;;;;28.47;15.20;;;;;;;;;;5052481;28;20196;-82
2022/12/12 13:25:16;;;;;;;27.43;16.53;;;;;;;;;;5052262;28;20279;-81
2022/12/12 13:27:45;;;;;;;27.00;17.00;;;;;;;;;;5052339;28;20234;-82
2022/12/12 13:30:19;;;;;;;27.73;15.60;;;;;;;;;;5038285;28;20230;-82
2022/12/12 13:32:57;;;;;;;22.70;13.60;;;;;;;;;;5032514;28;20218;-82
2022/12/12 13:35:26;;;;;;;26.57;15.30;;;;;;;;;;5031914;28;20257;-82
2022/12/12 13:37:54;;;;;;;26.37;15.17;;;;;;;;;;5032119;28;20206;-82
2022/12/12 13:40:23;;;;;;;25.97;15.67;;;;;;;;;;5031757;28;20207;-82
2022/12/12 13:42:58;;;;;;;24.97;14.43;;;;;;;;;;5032176;28;20261;-82
2022/12/12 13:45:41;;;;;;;24.47;14.93;;;;;;;;;;5031262;28;20234;-81
2022/12/12 13:48:11;;;;;;;25.50;14.07;;;;;;;;;;5032164;28;20204;-81
2022/12/12 13:50:38;;;;;;;21.77;13.07;;;;;;;;;;5031742;28;20230;-82
2022/12/12 13:53:19;;;;;;;21.53;13.57;;;;;;;;;;5032339;28;20210;-83
2022/12/12 13:55:47;;;;;;;24.23;13.20;;;;;;;;;;5032012;28;20589;-83
2022/12/12 13:58:34;;;;;;;23.73;13.03;;;;;;;;;;5032504;28;20282;-84
2022/12/12 14:01:16;;;;;;;18.20;12.53;;;;;;;;;;5055428;28;20234;-82
2022/12/12 14:03:47;;;;;;;22.20;13.30;;;;;;;;;;5049540;28;20216;-82
2022/12/12 14:06:19;;;;;;;19.47;12.80;;;;;;;;;;5051510;28;20237;-82
2022/12/12 14:08:49;;;;;;;18.47;12.10;;;;;;;;;;5048497;28;20206;-82
2022/12/12 14:11:26;;;;;;;18.70;12.37;;;;;;;;;;5044446;28;20391;-82
2022/12/12 14:14:01;;;;;;;21.07;12.03;;;;;;;;;;5052010;28;20766;-82
2022/12/12 14:16:29;;;;;;;17.30;10.90;;;;;;;;;;5051400;28;20225;-82
2022/12/12 14:19:00;;;;;;;19.27;11.40;;;;;;;;;;5052413;28;20231;-82
2022/12/12 14:21:38;;;;;;;20.03;11.73;;;;;;;;;;5059405;28;20233;-82
2022/12/12 14:24:20;;;;;;;16.93;10.80;;;;;;;;;;5063382;28;20260;-83
2022/12/12 14:26:48;;;;;;;17.30;11.17;;;;;;;;;;5059000;28;20241;-83
2022/12/12 14:29:26;;;;;;;19.77;12.10;;;;;;;;;;5060285;28;20817;-83
2022/12/12 14:31:59;;;;;;;24.40;12.97;;;;;;;;;;5061343;28;20283;-82
2022/12/12 14:34:31;;;;;;;19.90;12.17;;;;;;;;;;5062805;28;21578;-82
2022/12/12 14:37:13;;;;;;;19.83;12.70;;;;;;;;;;5052023;28;20245;-83
2022/12/12 14:39:55;;;;;;;22.57;13.77;;;;;;;;;;5051237;28;20202;-82
2022/12/12 14:42:27;;;;;;;18.77;12.43;;;;;;;;;;5053171;28;20780;-82
2022/12/12 14:44:54;;;;;;;20.33;13.70;;;;;;;;;;5052109;28;20678;-82
2022/12/12 14:47:21;;;;;;;21.20;13.23;;;;;;;;;;5049806;28;20238;-82
2022/12/12 14:50:07;;;;;;;22.60;13.80;;;;;;;;;;5050853;28;20232;-82